createdAt,value
2023-02-22T00:01:07.638Z,7.60
2023-02-22T00:03:35.195Z,7.60
2023-02-22T00:06:05.606Z,7.60
2023-02-22T00:08:37.786Z,7.60
2023-02-22T00:11:10.516Z,7.70
2023-02-22T00:13:39.442Z,7.70
2023-02-22T00:16:07.441Z,7.70
2023-02-22T00:18:37.288Z,7.70
2023-02-22T00:21:10.727Z,7.70
2023-02-22T00:23:43.362Z,7.60
2023-02-22T00:26:11.266Z,7.60
2023-02-22T00:28:39.305Z,7.50
2023-02-22T00:31:09.987Z,7.50
2023-02-22T00:33:41.261Z,7.50
2023-02-22T00:36:10.764Z,7.40
2023-02-22T00:38:38.908Z,7.40
2023-02-22T00:41:07.299Z,7.40
2023-02-22T00:43:35.158Z,7.30
2023-02-22T00:46:03.044Z,7.30
2023-02-22T00:48:30.430Z,7.30
2023-02-22T00:50:57.790Z,7.30
2023-02-22T00:53:26.350Z,7.30
2023-02-22T00:55:54.346Z,7.30
2023-02-22T00:58:22.209Z,7.30
2023-02-22T01:00:50.118Z,7.30
2023-02-22T01:03:19.996Z,7.30
2023-02-22T01:05:48.045Z,7.30
2023-02-22T01:08:17.541Z,7.30
2023-02-22T01:10:46.679Z,7.20
2023-02-22T01:13:14.340Z,7.20
2023-02-22T01:15:43.168Z,7.20
2023-02-22T01:18:12.669Z,7.10
2023-02-22T01:20:40.357Z,7.20
2023-02-22T01:23:08.230Z,7.20
2023-02-22T01:25:36.342Z,7.30
2023-02-22T01:28:05.812Z,7.20
2023-02-22T01:30:36.038Z,7.20
2023-02-22T01:33:07.001Z,7.20
2023-02-22T01:35:37.372Z,7.20
2023-02-22T01:38:04.948Z,7.20
2023-02-22T01:40:36.755Z,7.10
2023-02-22T01:43:25.887Z,7.20
2023-02-22T01:46:05.756Z,7.20
2023-02-22T01:48:44.648Z,7.20
2023-02-22T01:51:21.041Z,7.10
2023-02-22T01:54:22.977Z,7.10
2023-02-22T01:57:06.233Z,7.10
2023-02-22T01:59:37.760Z,7.20
2023-02-22T02:02:05.587Z,7.20
2023-02-22T02:04:34.264Z,7.20
2023-02-22T02:07:06.044Z,7.20
2023-02-22T02:09:52.029Z,7.30
2023-02-22T02:12:23.387Z,7.20
2023-02-22T02:14:51.002Z,7.20
2023-02-22T02:17:22.588Z,7.20
2023-02-22T02:20:16.359Z,7.20
2023-02-22T02:23:13.431Z,7.20
2023-02-22T02:26:10.542Z,7.20
2023-02-22T02:29:22.536Z,7.20
2023-02-22T02:32:14.436Z,7.20
2023-02-22T02:35:04.479Z,7.20
2023-02-22T02:37:54.141Z,7.20
2023-02-22T02:40:40.684Z,7.20
2023-02-22T02:43:26.888Z,7.20
2023-02-22T02:46:19.186Z,7.20
2023-02-22T02:48:54.839Z,7.20
2023-02-22T02:51:24.785Z,7.20
2023-02-22T02:53:53.673Z,7.30
2023-02-22T02:56:23.500Z,7.30
2023-02-22T02:58:53.459Z,7.30
2023-02-22T03:01:28.579Z,7.20
2023-02-22T03:04:03.079Z,7.20
2023-02-22T03:07:03.547Z,7.20
2023-02-22T03:10:04.170Z,7.20
2023-02-22T03:12:48.605Z,7.20
2023-02-22T03:15:28.337Z,7.10
2023-02-22T03:18:09.598Z,7.20
2023-02-22T03:20:37.136Z,7.20
2023-02-22T03:23:12.241Z,7.20
2023-02-22T03:25:53.804Z,7.30
2023-02-22T03:28:26.743Z,7.30
2023-02-22T03:31:03.145Z,7.30
2023-02-22T03:33:37.949Z,7.20
2023-02-22T03:36:30.131Z,7.20
2023-02-22T03:39:00.915Z,7.30
2023-02-22T03:41:30.046Z,7.30
2023-02-22T03:44:05.602Z,7.20
2023-02-22T03:46:36.482Z,7.20
2023-02-22T03:49:12.185Z,7.10
2023-02-22T03:51:40.176Z,7.10
2023-02-22T03:54:11.989Z,7.10
2023-02-22T03:57:03.440Z,7.10
2023-02-22T03:59:31.277Z,7.20
2023-02-22T04:01:58.753Z,7.20
2023-02-22T04:04:26.797Z,7.20
2023-02-22T04:06:54.642Z,7.20
2023-02-22T04:09:22.073Z,7.30
2023-02-22T04:11:49.486Z,7.20
2023-02-22T04:14:17.088Z,7.20
2023-02-22T04:16:45.031Z,7.30
2023-02-22T04:19:12.502Z,7.20
2023-02-22T04:21:40.074Z,7.20
2023-02-22T04:24:07.538Z,7.20
2023-02-22T04:26:34.983Z,7.20
2023-02-22T04:29:02.485Z,7.20
2023-02-22T04:31:30.668Z,7.20
2023-02-22T04:33:58.054Z,7.20
2023-02-22T04:36:25.650Z,7.20
2023-02-22T04:38:53.835Z,7.20
2023-02-22T04:41:21.993Z,7.20
2023-02-22T04:43:50.423Z,7.20
2023-02-22T04:46:18.048Z,7.20
2023-02-22T04:48:45.674Z,7.20
2023-02-22T04:51:13.233Z,7.20
2023-02-22T04:53:40.800Z,7.10
2023-02-22T04:56:08.380Z,7.10
2023-02-22T04:58:35.887Z,7.20
2023-02-22T05:01:03.686Z,7.20
2023-02-22T05:03:31.847Z,7.20
2023-02-22T05:05:59.336Z,7.20
2023-02-22T05:08:26.877Z,7.20
2023-02-22T05:10:54.782Z,7.20
2023-02-22T05:13:22.133Z,7.30
2023-02-22T05:15:49.739Z,7.20
2023-02-22T05:18:17.343Z,7.20
2023-02-22T05:20:44.652Z,7.20
2023-02-22T05:23:12.184Z,7.20
2023-02-22T05:25:39.759Z,7.10
2023-02-22T05:28:13.246Z,7.20
2023-02-22T05:30:41.035Z,7.20
2023-02-22T05:33:10.329Z,7.20
2023-02-22T05:35:37.734Z,7.20
2023-02-22T05:38:06.592Z,7.20
2023-02-22T05:40:34.183Z,7.20
2023-02-22T05:43:02.798Z,7.20
2023-02-22T05:45:30.339Z,7.20
2023-02-22T05:47:57.993Z,7.20
2023-02-22T05:50:25.697Z,7.30
2023-02-22T05:52:53.385Z,7.30
2023-02-22T05:55:22.843Z,7.20
2023-02-22T05:57:51.029Z,7.20
2023-02-22T06:00:24.748Z,7.20
2023-02-22T06:03:04.281Z,7.20
2023-02-22T06:05:32.091Z,7.10
2023-02-22T06:08:00.233Z,7.10
2023-02-22T06:10:28.581Z,7.10
2023-02-22T06:12:56.764Z,7.20
2023-02-22T06:15:25.401Z,7.20
2023-02-22T06:17:54.566Z,7.20
2023-02-22T06:20:24.337Z,7.20
2023-02-22T06:22:53.815Z,7.20
2023-02-22T06:25:24.481Z,7.20
2023-02-22T06:27:52.232Z,7.30
2023-02-22T06:30:22.607Z,7.20
2023-02-22T06:32:50.574Z,7.30
2023-02-22T06:35:18.172Z,7.30
2023-02-22T06:37:45.932Z,7.40
2023-02-22T06:40:14.230Z,7.30
2023-02-22T06:42:41.976Z,7.20
2023-02-22T06:45:10.420Z,7.30
2023-02-22T06:47:41.841Z,7.20
2023-02-22T06:50:18.522Z,7.20
2023-02-22T06:52:47.912Z,7.20
2023-02-22T06:55:30.437Z,7.10
2023-02-22T06:57:58.623Z,7.10
2023-02-22T07:00:27.630Z,7.10
2023-02-22T07:02:55.771Z,7.10
2023-02-22T07:05:25.074Z,7.00
2023-02-22T07:07:54.564Z,7.10
2023-02-22T07:10:23.981Z,7.10
2023-02-22T07:12:54.305Z,7.10
2023-02-22T07:15:24.556Z,7.20
2023-02-22T07:17:52.884Z,7.20
2023-02-22T07:20:21.630Z,7.20
2023-02-22T07:22:50.432Z,7.10
2023-02-22T07:25:18.832Z,7.20
2023-02-22T07:27:47.439Z,7.10
2023-02-22T07:30:32.457Z,7.10
2023-02-22T07:33:02.490Z,7.10
2023-02-22T07:35:32.894Z,7.20
2023-02-22T07:38:00.427Z,7.30
2023-02-22T07:40:28.491Z,7.20
2023-02-22T07:43:02.575Z,7.20
2023-02-22T07:45:32.332Z,7.20
2023-02-22T07:48:01.913Z,7.10
2023-02-22T07:50:31.400Z,7.10
2023-02-22T07:53:01.543Z,7.30
2023-02-22T07:55:31.380Z,7.10
2023-02-22T07:58:01.897Z,7.10
2023-02-22T08:00:34.734Z,7.10
2023-02-22T08:03:04.484Z,7.20
2023-02-22T08:05:34.985Z,7.20
2023-02-22T08:08:03.231Z,7.20
2023-02-22T08:10:31.064Z,7.20
2023-02-22T08:12:58.780Z,7.20
2023-02-22T08:15:29.873Z,7.20
2023-02-22T08:18:01.405Z,7.20
2023-02-22T08:20:30.669Z,7.20
2023-02-22T08:22:58.683Z,7.30
2023-02-22T08:25:29.565Z,7.30
2023-02-22T08:28:04.646Z,7.30
2023-02-22T08:30:33.159Z,7.30
2023-02-22T08:33:05.155Z,7.30
2023-02-22T08:35:33.749Z,7.30
2023-02-22T08:38:03.842Z,7.30
2023-02-22T08:40:35.149Z,7.30
2023-02-22T08:43:03.335Z,7.30
2023-02-22T08:45:31.213Z,7.40
2023-02-22T08:47:59.626Z,7.40
2023-02-22T08:50:30.112Z,7.40
2023-02-22T08:53:00.545Z,7.40
2023-02-22T08:55:32.422Z,7.40
2023-02-22T08:58:04.868Z,7.30
2023-02-22T09:00:33.641Z,7.40
2023-02-22T09:03:05.222Z,7.40
2023-02-22T09:05:32.979Z,7.40
2023-02-22T09:08:01.356Z,7.40
2023-02-22T09:10:32.430Z,7.50
2023-02-22T09:13:01.289Z,7.60
2023-02-22T09:15:30.000Z,7.60
2023-02-22T09:17:57.687Z,7.80
2023-02-22T09:20:25.495Z,7.80
2023-02-22T09:22:53.697Z,7.70
2023-02-22T09:25:22.118Z,7.70
2023-02-22T09:27:51.868Z,7.70
2023-02-22T09:30:24.818Z,7.70
2023-02-22T09:32:54.719Z,7.70
2023-02-22T09:35:27.255Z,7.70
2023-02-22T09:38:00.316Z,7.70
2023-02-22T09:40:31.588Z,7.70
2023-02-22T09:43:04.608Z,7.70
2023-02-22T09:45:45.048Z,7.80
2023-02-22T09:48:22.155Z,7.80
2023-02-22T09:50:53.915Z,7.80
2023-02-22T09:53:29.824Z,7.80
2023-02-22T09:56:06.856Z,7.80
2023-02-22T09:58:41.462Z,7.90
2023-02-22T10:01:28.788Z,7.80
2023-02-22T10:04:36.466Z,7.80
2023-02-22T10:07:30.970Z,7.80
2023-02-22T10:10:06.306Z,7.80
2023-02-22T10:12:39.825Z,7.80
2023-02-22T10:15:19.304Z,7.90
2023-02-22T10:18:20.901Z,7.90
2023-02-22T10:21:04.341Z,7.90
2023-02-22T10:23:53.637Z,8.00
2023-02-22T10:26:28.665Z,8.10
2023-02-22T10:29:01.538Z,8.10
2023-02-22T10:31:33.668Z,8.10
2023-02-22T10:34:07.683Z,8.00
2023-02-22T10:36:39.123Z,8.10
2023-02-22T10:39:12.475Z,8.00
2023-02-22T10:41:49.381Z,8.10
2023-02-22T10:44:17.061Z,8.00
2023-02-22T10:46:46.071Z,8.10
2023-02-22T10:49:20.350Z,8.20
2023-02-22T10:52:01.222Z,8.20
2023-02-22T10:54:31.675Z,8.20
2023-02-22T10:57:00.645Z,8.20
2023-02-22T10:59:37.043Z,8.30
2023-02-22T11:02:23.663Z,8.40
2023-02-22T11:04:54.624Z,8.40
2023-02-22T11:07:25.668Z,8.40
2023-02-22T11:09:55.777Z,8.40
2023-02-22T11:12:48.639Z,8.40
2023-02-22T11:15:29.818Z,8.40
2023-02-22T11:18:01.408Z,8.40
2023-02-22T11:20:34.909Z,8.40
2023-02-22T11:23:04.783Z,8.30
2023-02-22T11:25:38.552Z,8.40
2023-02-22T11:28:30.859Z,8.40
2023-02-22T11:31:10.643Z,8.30
2023-02-22T11:33:39.330Z,8.30
2023-02-22T11:36:09.470Z,8.40
2023-02-22T11:38:53.117Z,8.40
2023-02-22T11:41:27.631Z,8.40
2023-02-22T11:44:11.516Z,8.50
2023-02-22T11:46:41.604Z,8.50
2023-02-22T11:49:12.845Z,8.50
2023-02-22T11:51:58.052Z,8.50
2023-02-22T11:54:52.716Z,8.50
2023-02-22T11:57:58.013Z,8.60
2023-02-22T12:00:39.649Z,8.60
2023-02-22T12:03:31.703Z,8.60
2023-02-22T12:06:19.581Z,8.60
2023-02-22T12:09:24.196Z,8.60
2023-02-22T12:12:08.060Z,8.70
2023-02-22T12:14:44.327Z,8.70
2023-02-22T12:17:39.028Z,8.70
2023-02-22T12:20:44.314Z,8.80
2023-02-22T12:23:23.862Z,8.80
2023-02-22T12:25:58.804Z,8.80
2023-02-22T12:28:49.118Z,8.70
2023-02-22T12:31:33.891Z,8.70
2023-02-22T12:34:08.387Z,8.70
2023-02-22T12:36:50.428Z,8.80
2023-02-22T12:39:52.290Z,8.80
2023-02-22T12:42:44.558Z,8.80
2023-02-22T12:45:21.424Z,8.80
2023-02-22T12:48:07.317Z,8.80
2023-02-22T12:50:37.777Z,8.80
2023-02-22T12:53:25.834Z,8.90
2023-02-22T12:56:16.174Z,8.80
2023-02-22T12:59:00.248Z,8.80
2023-02-22T13:01:40.590Z,8.80
2023-02-22T13:04:20.170Z,8.80
2023-02-22T13:07:25.172Z,8.80
2023-02-22T13:10:14.428Z,8.80
2023-02-22T13:12:54.041Z,8.80
2023-02-22T13:15:38.136Z,8.80
2023-02-22T13:18:17.137Z,8.80
2023-02-22T13:20:59.565Z,9.00
2023-02-22T13:23:55.716Z,9.00
2023-02-22T13:26:32.145Z,9.10
2023-02-22T13:29:05.634Z,9.10
2023-02-22T13:31:41.069Z,9.20
2023-02-22T13:34:42.210Z,9.40
2023-02-22T13:37:17.798Z,9.40
2023-02-22T13:40:09.028Z,9.40
2023-02-22T13:43:16.930Z,9.40
2023-02-22T13:46:32.460Z,9.30
2023-02-22T13:49:34.758Z,9.30
2023-02-22T13:52:08.316Z,9.30
2023-02-22T13:54:47.213Z,9.30
2023-02-22T13:57:18.820Z,9.30
2023-02-22T13:59:47.423Z,9.40
2023-02-22T14:02:58.219Z,9.50
2023-02-22T14:05:44.777Z,9.40
2023-02-22T14:08:44.506Z,9.40
2023-02-22T14:11:14.663Z,9.40
2023-02-22T14:13:55.794Z,9.40
2023-02-22T14:16:29.237Z,9.40
2023-02-22T14:19:23.993Z,9.40
2023-02-22T14:22:02.238Z,9.40
2023-02-22T14:24:44.860Z,9.40
2023-02-22T14:27:14.672Z,9.30
2023-02-22T14:30:00.868Z,9.30
2023-02-22T14:32:33.608Z,9.30
2023-02-22T14:35:09.632Z,9.30
2023-02-22T14:37:43.969Z,9.30
2023-02-22T14:40:25.962Z,9.40
2023-02-22T14:43:03.276Z,9.40
2023-02-22T14:45:39.868Z,9.40
2023-02-22T14:48:20.558Z,9.50
2023-02-22T14:50:53.311Z,9.60
2023-02-22T14:53:24.120Z,9.70
2023-02-22T14:56:02.477Z,9.70
2023-02-22T14:58:38.358Z,9.80
2023-02-22T15:01:31.311Z,9.80
2023-02-22T15:04:25.721Z,9.80
2023-02-22T15:06:54.657Z,9.80
2023-02-22T15:09:28.963Z,9.80
2023-02-22T15:12:03.124Z,9.80
2023-02-22T15:14:39.001Z,9.80
2023-02-22T15:17:18.405Z,9.80
2023-02-22T15:19:48.784Z,9.70
2023-02-22T15:22:35.914Z,9.70
2023-02-22T15:25:09.031Z,9.60
2023-02-22T15:27:37.668Z,9.60
2023-02-22T15:30:24.125Z,9.60
2023-02-22T15:33:03.732Z,9.60
2023-02-22T15:35:33.935Z,9.60
2023-02-22T15:38:06.511Z,9.70
2023-02-22T15:40:35.461Z,9.70
2023-02-22T15:43:10.951Z,9.70
2023-02-22T15:45:43.131Z,9.70
2023-02-22T15:48:12.365Z,9.60
2023-02-22T15:50:39.835Z,9.70
2023-02-22T15:53:23.809Z,9.60
2023-02-22T15:55:58.077Z,9.70
2023-02-22T15:58:31.278Z,9.70
2023-02-22T16:01:02.397Z,9.70
2023-02-22T16:03:47.857Z,9.70
2023-02-22T16:06:28.919Z,9.70
2023-02-22T16:08:59.120Z,9.70
2023-02-22T16:11:34.336Z,9.70
2023-02-22T16:14:05.522Z,9.70
2023-02-22T16:16:34.273Z,9.70
2023-02-22T16:19:23.149Z,9.80
2023-02-22T16:22:02.787Z,9.80
2023-02-22T16:24:36.221Z,9.80
2023-02-22T16:27:10.764Z,9.80
2023-02-22T16:29:38.414Z,9.70
2023-02-22T16:32:06.207Z,9.60
2023-02-22T16:34:34.766Z,9.70
2023-02-22T16:37:02.569Z,9.80
2023-02-22T16:39:32.529Z,9.80
2023-02-22T16:42:02.716Z,9.90
2023-02-22T16:44:30.707Z,9.90
2023-02-22T16:47:00.860Z,9.90
2023-02-22T16:49:28.349Z,9.80
2023-02-22T16:52:06.670Z,9.70
2023-02-22T16:54:39.928Z,9.70
2023-02-22T16:57:08.021Z,9.60
2023-02-22T16:59:39.771Z,9.50
2023-02-22T17:02:13.507Z,9.40
2023-02-22T17:04:41.253Z,9.40
2023-02-22T17:07:09.670Z,9.40
2023-02-22T17:09:39.575Z,9.40
2023-02-22T17:12:07.249Z,9.50
2023-02-22T17:14:36.031Z,9.60
2023-02-22T17:17:04.009Z,9.50
2023-02-22T17:19:31.500Z,9.50
2023-02-22T17:21:59.265Z,9.50
2023-02-22T17:24:29.484Z,9.50
2023-02-22T17:26:59.311Z,9.40
2023-02-22T17:29:30.697Z,9.50
2023-02-22T17:31:59.708Z,9.50
2023-02-22T17:34:28.126Z,9.40
2023-02-22T17:36:55.456Z,9.50
2023-02-22T17:39:22.841Z,9.50
2023-02-22T17:41:57.111Z,9.50
2023-02-22T17:44:25.849Z,9.40
2023-02-22T17:46:53.803Z,9.40
2023-02-22T17:49:21.360Z,9.40
2023-02-22T17:51:49.590Z,9.40
2023-02-22T17:54:18.111Z,9.40
2023-02-22T17:56:45.717Z,9.40
2023-02-22T17:59:13.248Z,9.40
2023-02-22T18:01:43.943Z,9.50
2023-02-22T18:04:11.857Z,9.40
2023-02-22T18:06:40.160Z,9.40
2023-02-22T18:09:10.785Z,9.50
2023-02-22T18:11:40.125Z,9.40
2023-02-22T18:14:10.722Z,9.40
2023-02-22T18:16:39.472Z,9.40
2023-02-22T18:19:07.300Z,9.30
2023-02-22T18:21:34.756Z,9.30
2023-02-22T18:24:02.649Z,9.30
2023-02-22T18:26:30.435Z,9.30
2023-02-22T18:28:57.856Z,9.60
2023-02-22T18:31:25.284Z,9.50
2023-02-22T18:33:53.517Z,9.40
2023-02-22T18:36:23.152Z,9.40
2023-02-22T18:38:53.555Z,9.30
2023-02-22T18:41:26.619Z,9.30
2023-02-22T18:43:55.420Z,9.30
2023-02-22T18:46:24.968Z,9.30
2023-02-22T18:48:54.950Z,9.40
2023-02-22T18:51:23.836Z,9.40
2023-02-22T18:53:56.960Z,9.40
2023-02-22T18:56:29.976Z,9.40
2023-02-22T18:59:01.017Z,9.40
2023-02-22T19:01:29.500Z,9.30
2023-02-22T19:03:57.503Z,9.30
2023-02-22T19:06:25.864Z,9.30
2023-02-22T19:08:54.812Z,9.30
2023-02-22T19:11:24.530Z,9.30
2023-02-22T19:13:54.551Z,9.30
2023-02-22T19:16:24.586Z,9.30
2023-02-22T19:18:57.537Z,9.30
2023-02-22T19:21:27.970Z,9.20
2023-02-22T19:23:56.399Z,9.20
2023-02-22T19:26:27.500Z,9.10
2023-02-22T19:28:57.205Z,9.10
2023-02-22T19:31:29.561Z,9.10
2023-02-22T19:34:09.299Z,9.10
2023-02-22T19:36:43.295Z,9.00
2023-02-22T19:39:10.950Z,9.00
2023-02-22T19:41:38.508Z,9.00
2023-02-22T19:44:06.261Z,9.00
2023-02-22T19:46:34.587Z,9.00
2023-02-22T19:49:02.953Z,9.00
2023-02-22T19:51:31.969Z,8.90
2023-02-22T19:54:03.046Z,8.90
2023-02-22T19:56:32.328Z,8.90
2023-02-22T19:59:17.008Z,8.80
2023-02-22T20:01:44.914Z,8.90
2023-02-22T20:04:18.500Z,8.90
2023-02-22T20:06:47.898Z,8.90
2023-02-22T20:09:20.538Z,8.90
2023-02-22T20:11:48.498Z,8.80
2023-02-22T20:14:20.002Z,8.80
2023-02-22T20:16:47.628Z,8.70
2023-02-22T20:19:14.940Z,8.70
2023-02-22T20:21:42.614Z,8.70
2023-02-22T20:24:14.950Z,8.60
2023-02-22T20:26:42.743Z,8.60
2023-02-22T20:29:11.340Z,8.70
2023-02-22T20:31:41.381Z,8.70
2023-02-22T20:34:10.107Z,8.70
2023-02-22T20:36:41.901Z,8.60
2023-02-22T20:39:13.577Z,8.60
2023-02-22T20:41:44.400Z,8.50
2023-02-22T20:44:14.381Z,8.50
2023-02-22T20:46:43.103Z,8.50
2023-02-22T20:49:13.696Z,8.50
2023-02-22T20:51:41.991Z,8.50
2023-02-22T20:54:12.274Z,8.40
2023-02-22T20:56:42.101Z,8.50
2023-02-22T20:59:13.095Z,8.40
2023-02-22T21:01:40.795Z,8.40
2023-02-22T21:04:10.152Z,8.40
2023-02-22T21:06:38.994Z,8.40
2023-02-22T21:09:08.923Z,8.30
2023-02-22T21:11:36.783Z,8.30
2023-02-22T21:14:04.504Z,8.30
2023-02-22T21:16:35.667Z,8.20
2023-02-22T21:19:06.830Z,8.20
2023-02-22T21:21:35.355Z,8.20
2023-02-22T21:24:03.249Z,8.20
2023-02-22T21:26:34.379Z,8.20
2023-02-22T21:29:04.911Z,8.20
2023-02-22T21:31:37.016Z,8.20
2023-02-22T21:34:04.869Z,8.10
2023-02-22T21:36:32.545Z,8.10
2023-02-22T21:39:02.057Z,8.10
2023-02-22T21:41:31.080Z,8.10
2023-02-22T21:43:59.700Z,8.10
2023-02-22T21:46:29.517Z,8.10
2023-02-22T21:48:58.963Z,8.00
2023-02-22T21:51:34.234Z,8.10
2023-02-22T21:54:04.369Z,8.00
2023-02-22T21:56:34.752Z,8.00
2023-02-22T21:59:05.571Z,8.00
2023-02-22T22:01:34.329Z,8.00
2023-02-22T22:04:03.303Z,8.00
2023-02-22T22:06:33.209Z,7.90
2023-02-22T22:09:00.930Z,7.90
2023-02-22T22:11:30.794Z,7.90
2023-02-22T22:13:59.819Z,7.90
2023-02-22T22:16:30.229Z,7.80
2023-02-22T22:18:58.045Z,7.80
2023-02-22T22:21:25.888Z,7.80
2023-02-22T22:23:57.516Z,7.90
2023-02-22T22:26:26.289Z,7.80
2023-02-22T22:28:57.746Z,7.80
2023-02-22T22:31:26.786Z,7.70
2023-02-22T22:33:56.415Z,7.70
2023-02-22T22:36:27.105Z,7.70
2023-02-22T22:38:57.668Z,7.60
2023-02-22T22:41:28.327Z,7.60
2023-02-22T22:43:55.999Z,7.70
2023-02-22T22:46:23.638Z,7.80
2023-02-22T22:48:51.177Z,7.70
2023-02-22T22:51:21.117Z,7.70
2023-02-22T22:53:50.377Z,7.70
2023-02-22T22:56:29.343Z,7.70
2023-02-22T22:58:58.860Z,7.60
2023-02-22T23:01:34.196Z,7.60
2023-02-22T23:04:03.909Z,7.60
2023-02-22T23:06:34.409Z,7.50
2023-02-22T23:09:12.841Z,7.50
2023-02-22T23:11:44.743Z,7.50
2023-02-22T23:14:15.541Z,7.50
2023-02-22T23:16:44.541Z,7.50
2023-02-22T23:19:12.458Z,7.50
2023-02-22T23:21:42.836Z,7.50
2023-02-22T23:24:12.950Z,7.40
2023-02-22T23:26:41.102Z,7.50
2023-02-22T23:29:08.859Z,7.50
2023-02-22T23:31:39.771Z,7.50
2023-02-22T23:34:13.955Z,7.40
2023-02-22T23:36:47.030Z,7.40
2023-02-22T23:39:17.738Z,7.40
2023-02-22T23:41:45.332Z,7.30
2023-02-22T23:44:17.700Z,7.40
2023-02-22T23:46:48.581Z,7.40
2023-02-22T23:49:20.573Z,7.50
2023-02-22T23:51:52.809Z,7.50
2023-02-22T23:54:21.553Z,7.30
2023-02-22T23:56:58.570Z,7.30
2023-02-22T23:59:27.349Z,7.30
